createdAt,value
2023-01-20T00:00:04.154Z,4.03
2023-01-20T00:02:33.124Z,3.97
2023-01-20T00:05:00.630Z,3.91
2023-01-20T00:07:28.176Z,3.41
2023-01-20T00:09:55.976Z,3.61
2023-01-20T00:12:23.503Z,4.42
2023-01-20T00:14:50.991Z,4.33
2023-01-20T00:17:18.491Z,3.91
2023-01-20T00:19:47.339Z,3.93
2023-01-20T00:22:14.891Z,4.04
2023-01-20T00:24:42.387Z,3.60
2023-01-20T00:27:10.086Z,3.34
2023-01-20T00:29:37.578Z,3.56
2023-01-20T00:32:05.249Z,3.90
2023-01-20T00:34:32.741Z,4.20
2023-01-20T00:37:01.609Z,3.67
2023-01-20T00:39:29.101Z,3.48
2023-01-20T00:41:56.614Z,3.97
2023-01-20T00:44:24.169Z,3.92
2023-01-20T00:46:51.657Z,3.72
2023-01-20T00:49:19.153Z,3.70
2023-01-20T00:51:46.595Z,3.53
2023-01-20T00:54:15.489Z,3.88
2023-01-20T00:56:42.946Z,3.75
2023-01-20T00:59:10.551Z,3.47
2023-01-20T01:01:38.042Z,3.65
2023-01-20T01:04:05.960Z,3.77
2023-01-20T01:06:33.515Z,3.47
2023-01-20T01:09:01.046Z,3.65
2023-01-20T01:11:29.963Z,3.11
2023-01-20T01:13:57.913Z,3.92
2023-01-20T01:16:25.512Z,3.78
2023-01-20T01:18:53.993Z,3.66
2023-01-20T01:21:21.551Z,3.53
2023-01-20T01:23:49.154Z,3.09
2023-01-20T01:26:16.688Z,3.47
2023-01-20T01:28:47.133Z,3.65
2023-01-20T01:31:14.620Z,3.95
2023-01-20T01:33:42.130Z,3.49
2023-01-20T01:36:12.115Z,3.74
2023-01-20T01:38:39.587Z,3.29
2023-01-20T01:41:07.323Z,3.26
2023-01-20T01:43:35.657Z,3.51
2023-01-20T01:46:04.881Z,3.55
2023-01-20T01:48:32.868Z,3.99
2023-01-20T01:51:01.971Z,3.27
2023-01-20T01:53:29.939Z,3.95
2023-01-20T01:55:57.704Z,3.72
2023-01-20T01:58:26.013Z,3.65
2023-01-20T02:00:53.607Z,3.36
2023-01-20T02:03:22.517Z,3.19
2023-01-20T02:05:50.113Z,3.30
2023-01-20T02:08:17.698Z,2.92
2023-01-20T02:10:45.185Z,3.32
2023-01-20T02:13:12.717Z,2.74
2023-01-20T02:15:41.100Z,3.47
2023-01-20T02:18:18.266Z,3.03
2023-01-20T02:20:57.413Z,2.78
2023-01-20T02:23:29.147Z,3.42
2023-01-20T02:26:07.125Z,3.28
2023-01-20T02:29:07.736Z,3.43
2023-01-20T02:31:52.929Z,3.30
2023-01-20T02:34:23.826Z,2.93
2023-01-20T02:36:51.893Z,3.81
2023-01-20T02:39:27.696Z,3.70
2023-01-20T02:41:57.396Z,3.32
2023-01-20T02:44:26.891Z,2.63
2023-01-20T02:46:54.958Z,2.89
2023-01-20T02:49:24.942Z,3.20
2023-01-20T02:51:52.621Z,2.59
2023-01-20T02:54:20.158Z,3.41
2023-01-20T02:56:47.650Z,3.47
2023-01-20T02:59:15.901Z,3.14
2023-01-20T03:01:44.272Z,3.75
2023-01-20T03:04:11.954Z,3.54
2023-01-20T03:06:42.035Z,3.53
2023-01-20T03:09:10.378Z,2.98
2023-01-20T03:11:38.937Z,3.34
2023-01-20T03:14:07.495Z,3.49
2023-01-20T03:16:35.038Z,3.48
2023-01-20T03:19:02.565Z,3.68
2023-01-20T03:21:30.053Z,3.83
2023-01-20T03:24:04.585Z,3.67
2023-01-20T03:26:32.163Z,3.54
2023-01-20T03:28:59.929Z,2.95
2023-01-20T03:31:28.725Z,3.40
2023-01-20T03:33:56.893Z,3.31
2023-01-20T03:36:24.905Z,3.32
2023-01-20T03:38:52.427Z,3.24
2023-01-20T03:41:24.083Z,3.49
2023-01-20T03:43:53.459Z,3.68
2023-01-20T03:46:21.837Z,3.45
2023-01-20T03:48:50.543Z,2.66
2023-01-20T03:51:19.705Z,3.00
2023-01-20T03:53:48.063Z,3.29
2023-01-20T03:56:15.904Z,3.73
2023-01-20T03:58:45.412Z,3.02
2023-01-20T04:01:18.773Z,3.65
2023-01-20T04:03:47.132Z,3.53
2023-01-20T04:06:14.840Z,3.63
2023-01-20T04:08:42.749Z,3.50
2023-01-20T04:11:10.206Z,3.05
2023-01-20T04:13:37.746Z,2.88
2023-01-20T04:16:10.479Z,3.50
2023-01-20T04:18:38.254Z,3.24
2023-01-20T04:21:05.864Z,3.82
2023-01-20T04:23:33.731Z,4.13
2023-01-20T04:26:01.255Z,4.23
2023-01-20T04:28:29.651Z,4.09
2023-01-20T04:30:57.248Z,3.56
2023-01-20T04:33:26.277Z,4.04
2023-01-20T04:35:53.813Z,4.09
2023-01-20T04:38:21.381Z,4.04
2023-01-20T04:40:48.903Z,4.15
2023-01-20T04:43:16.826Z,3.92
2023-01-20T04:45:44.338Z,4.15
2023-01-20T04:48:11.858Z,3.98
2023-01-20T04:50:41.121Z,4.06
2023-01-20T04:53:08.690Z,3.92
2023-01-20T04:55:36.231Z,4.06
2023-01-20T04:58:03.804Z,4.04
2023-01-20T05:00:31.376Z,3.33
2023-01-20T05:02:59.132Z,3.47
2023-01-20T05:05:26.632Z,3.10
2023-01-20T05:07:55.606Z,3.84
2023-01-20T05:10:23.090Z,4.36
2023-01-20T05:12:50.620Z,4.14
2023-01-20T05:15:18.190Z,4.26
2023-01-20T05:17:45.694Z,4.15
2023-01-20T05:20:14.243Z,3.98
2023-01-20T05:22:41.724Z,4.12
2023-01-20T05:25:10.809Z,4.07
2023-01-20T05:27:38.304Z,3.58
2023-01-20T05:30:06.153Z,4.08
2023-01-20T05:32:33.699Z,3.95
2023-01-20T05:35:01.175Z,4.02
2023-01-20T05:37:28.954Z,3.87
2023-01-20T05:39:56.620Z,4.32
2023-01-20T05:42:25.472Z,3.82
2023-01-20T05:44:53.006Z,4.01
2023-01-20T05:47:20.463Z,3.64
2023-01-20T05:49:47.945Z,3.48
2023-01-20T05:52:15.510Z,3.24
2023-01-20T05:54:43.488Z,3.64
2023-01-20T05:57:11.010Z,3.63
2023-01-20T05:59:39.974Z,4.07
2023-01-20T06:02:07.478Z,4.17
2023-01-20T06:04:35.105Z,4.22
2023-01-20T06:07:02.610Z,4.43
2023-01-20T06:09:30.151Z,4.50
2023-01-20T06:11:57.691Z,4.08
2023-01-20T06:14:25.341Z,3.66
2023-01-20T06:16:54.156Z,3.67
2023-01-20T06:19:21.929Z,3.49
2023-01-20T06:21:49.362Z,4.11
2023-01-20T06:24:16.892Z,4.15
2023-01-20T06:26:44.342Z,4.13
2023-01-20T06:29:11.857Z,3.75
2023-01-20T06:31:39.477Z,3.99
2023-01-20T06:34:08.352Z,3.68
2023-01-20T06:36:35.855Z,3.08
2023-01-20T06:39:03.552Z,3.76
2023-01-20T06:41:31.008Z,4.04
2023-01-20T06:43:58.560Z,3.78
2023-01-20T06:46:26.072Z,3.46
2023-01-20T06:49:00.160Z,3.68
2023-01-20T06:51:29.501Z,4.18
2023-01-20T06:53:57.045Z,4.45
2023-01-20T06:56:24.936Z,3.61
2023-01-20T06:58:52.547Z,3.79
2023-01-20T07:01:21.809Z,3.88
2023-01-20T07:03:49.578Z,3.52
2023-01-20T07:06:17.782Z,4.04
2023-01-20T07:08:46.935Z,4.36
2023-01-20T07:11:14.541Z,4.18
2023-01-20T07:13:42.072Z,3.88
2023-01-20T07:16:11.983Z,3.80
2023-01-20T07:18:40.607Z,4.14
2023-01-20T07:21:08.214Z,4.09
2023-01-20T07:23:35.747Z,3.90
2023-01-20T07:26:05.143Z,4.05
2023-01-20T07:28:32.986Z,3.64
2023-01-20T07:31:03.803Z,3.88
2023-01-20T07:33:31.333Z,3.38
2023-01-20T07:35:58.837Z,4.20
2023-01-20T07:38:26.375Z,3.71
2023-01-20T07:40:53.888Z,3.90
2023-01-20T07:43:22.729Z,4.21
2023-01-20T07:45:50.303Z,4.10
2023-01-20T07:48:17.904Z,3.33
2023-01-20T07:50:45.422Z,3.22
2023-01-20T07:53:12.967Z,3.63
2023-01-20T07:55:40.453Z,3.65
2023-01-20T07:58:07.923Z,3.69
2023-01-20T08:00:36.818Z,3.89
2023-01-20T08:03:04.398Z,3.74
2023-01-20T08:05:32.913Z,3.68
2023-01-20T08:08:00.471Z,3.75
2023-01-20T08:10:28.883Z,3.75
2023-01-20T08:12:56.575Z,3.66
2023-01-20T08:15:24.060Z,3.45
2023-01-20T08:17:55.463Z,3.65
2023-01-20T08:20:23.083Z,3.93
2023-01-20T08:22:50.673Z,3.76
2023-01-20T08:25:18.193Z,3.81
2023-01-20T08:27:45.749Z,3.11
2023-01-20T08:30:13.543Z,3.33
2023-01-20T08:32:41.099Z,3.34
2023-01-20T08:35:10.278Z,3.75
2023-01-20T08:37:37.809Z,2.89
2023-01-20T08:40:06.559Z,3.48
2023-01-20T08:42:34.021Z,3.77
2023-01-20T08:45:01.679Z,4.22
2023-01-20T08:47:29.162Z,3.74
2023-01-20T08:49:56.689Z,4.26
2023-01-20T08:52:25.603Z,4.15
2023-01-20T08:54:53.860Z,4.23
2023-01-20T08:57:21.399Z,4.13
2023-01-20T08:59:50.800Z,4.02
2023-01-20T09:02:18.386Z,3.78
2023-01-20T09:04:46.216Z,4.13
2023-01-20T09:07:13.740Z,4.18
2023-01-20T09:09:42.589Z,4.07
2023-01-20T09:12:10.088Z,4.37
2023-01-20T09:14:37.588Z,4.04
2023-01-20T09:17:05.086Z,4.65
2023-01-20T09:19:32.533Z,4.26
2023-01-20T09:22:00.087Z,4.39
2023-01-20T09:24:27.654Z,3.95
2023-01-20T09:26:57.181Z,4.43
2023-01-20T09:29:24.768Z,4.58
2023-01-20T09:31:52.913Z,4.19
2023-01-20T09:34:23.132Z,4.50
2023-01-20T09:36:50.986Z,4.82
2023-01-20T09:39:36.422Z,4.58
2023-01-20T09:42:24.460Z,4.40
2023-01-20T09:44:53.909Z,4.04
2023-01-20T09:47:28.634Z,3.92
2023-01-20T09:50:21.515Z,4.53
2023-01-20T09:53:04.672Z,4.40
2023-01-20T09:55:33.712Z,4.03
2023-01-20T09:58:06.607Z,4.33
2023-01-20T10:00:34.179Z,4.91
2023-01-20T10:03:02.313Z,4.50
2023-01-20T10:05:32.855Z,4.91
2023-01-20T10:08:02.258Z,5.13
2023-01-20T10:10:30.399Z,4.80
2023-01-20T10:12:58.082Z,4.23
2023-01-20T10:15:28.277Z,4.52
2023-01-20T10:17:58.464Z,4.92
2023-01-20T10:20:28.716Z,4.72
2023-01-20T10:22:57.278Z,4.34
2023-01-20T10:25:26.026Z,4.84
2023-01-20T10:27:54.380Z,4.51
2023-01-20T10:30:22.766Z,5.00
2023-01-20T10:32:53.454Z,5.34
2023-01-20T10:35:21.551Z,4.46
2023-01-20T10:37:49.083Z,4.80
2023-01-20T10:40:18.698Z,4.57
2023-01-20T10:42:47.543Z,4.67
2023-01-20T10:45:15.797Z,4.34
2023-01-20T10:47:45.211Z,4.43
2023-01-20T10:50:18.122Z,4.72
2023-01-20T10:52:47.848Z,4.56
2023-01-20T10:55:19.452Z,5.09
2023-01-20T10:57:48.691Z,5.07
2023-01-20T11:00:18.741Z,5.05
2023-01-20T11:02:49.249Z,4.75
2023-01-20T11:05:19.273Z,4.39
2023-01-20T11:07:47.033Z,4.46
2023-01-20T11:10:15.235Z,4.36
2023-01-20T11:12:43.221Z,4.16
2023-01-20T11:15:15.789Z,4.69
2023-01-20T11:17:43.262Z,4.49
2023-01-20T11:20:15.255Z,5.06
2023-01-20T11:22:46.022Z,3.74
2023-01-20T11:25:22.214Z,4.51
2023-01-20T11:27:49.733Z,4.29
2023-01-20T11:30:22.135Z,4.91
2023-01-20T11:32:50.515Z,4.84
2023-01-20T11:35:21.728Z,4.81
2023-01-20T11:37:50.566Z,4.29
2023-01-20T11:40:22.050Z,4.23
2023-01-20T11:42:49.963Z,4.35
2023-01-20T11:45:28.076Z,4.35
2023-01-20T11:48:02.976Z,4.50
2023-01-20T11:50:31.757Z,4.13
2023-01-20T11:53:13.696Z,4.77
2023-01-20T11:55:48.420Z,4.51
2023-01-20T11:58:17.530Z,4.43
2023-01-20T12:00:45.127Z,4.60
2023-01-20T12:03:19.327Z,4.26
2023-01-20T12:05:48.369Z,4.46
2023-01-20T12:08:17.880Z,4.88
2023-01-20T12:10:45.366Z,4.86
2023-01-20T12:13:14.095Z,4.89
2023-01-20T12:15:41.917Z,5.27
2023-01-20T12:18:12.045Z,5.31
2023-01-20T12:20:54.083Z,4.91
2023-01-20T12:23:24.902Z,4.75
2023-01-20T12:25:54.166Z,5.15
2023-01-20T12:28:23.033Z,5.07
2023-01-20T12:30:52.549Z,4.85
2023-01-20T12:33:24.563Z,5.15
2023-01-20T12:36:25.641Z,5.34
2023-01-20T12:39:06.144Z,5.18
2023-01-20T12:41:36.887Z,5.03
2023-01-20T12:44:06.035Z,5.17
2023-01-20T12:46:35.326Z,4.96
2023-01-20T12:49:07.268Z,5.03
2023-01-20T12:51:37.614Z,4.70
2023-01-20T12:54:11.702Z,4.12
2023-01-20T12:56:41.386Z,3.97
2023-01-20T12:59:10.025Z,4.69
2023-01-20T13:01:42.736Z,4.93
2023-01-20T13:04:21.181Z,5.16
2023-01-20T13:06:55.631Z,5.38
2023-01-20T13:09:30.924Z,4.99
2023-01-20T13:12:01.744Z,5.09
2023-01-20T13:14:31.539Z,4.40
2023-01-20T13:17:00.007Z,4.77
2023-01-20T13:19:29.496Z,5.18
2023-01-20T13:22:07.675Z,5.20
2023-01-20T13:24:37.144Z,5.02
2023-01-20T13:27:04.660Z,5.39
2023-01-20T13:29:46.553Z,5.70
2023-01-20T13:32:30.165Z,5.64
2023-01-20T13:34:57.851Z,5.00
2023-01-20T13:37:26.536Z,4.79
2023-01-20T13:39:55.974Z,5.13
2023-01-20T13:42:44.417Z,5.23
2023-01-20T13:45:32.805Z,4.96
2023-01-20T13:48:01.345Z,5.04
2023-01-20T13:50:30.152Z,5.64
2023-01-20T13:53:12.874Z,5.80
2023-01-20T13:55:58.110Z,5.22
2023-01-20T13:58:27.988Z,5.22
2023-01-20T14:00:56.049Z,5.60
2023-01-20T14:03:24.440Z,5.85
2023-01-20T14:05:52.174Z,5.70
2023-01-20T14:08:19.991Z,5.59
2023-01-20T14:10:47.610Z,6.09
2023-01-20T14:13:19.215Z,5.73
2023-01-20T14:15:49.359Z,5.90
2023-01-20T14:18:18.755Z,5.99
2023-01-20T14:20:56.921Z,5.95
2023-01-20T14:23:28.768Z,6.07
2023-01-20T14:26:00.307Z,6.38
2023-01-20T14:28:27.842Z,6.16
2023-01-20T14:31:28.822Z,6.04
2023-01-20T14:33:58.929Z,6.15
2023-01-20T14:36:26.934Z,5.36
2023-01-20T14:38:58.180Z,5.70
2023-01-20T14:41:31.359Z,5.95
2023-01-20T14:43:59.083Z,6.22
2023-01-20T14:46:26.818Z,6.09
2023-01-20T14:48:54.323Z,6.00
2023-01-20T14:51:23.206Z,5.08
2023-01-20T14:54:05.603Z,5.70
2023-01-20T14:56:33.051Z,5.77
2023-01-20T14:59:00.530Z,5.54
2023-01-20T15:01:28.108Z,6.00
2023-01-20T15:03:56.369Z,5.81
2023-01-20T15:06:25.306Z,6.13
2023-01-20T15:09:05.703Z,5.71
2023-01-20T15:11:35.535Z,5.29
2023-01-20T15:14:08.485Z,5.71
2023-01-20T15:16:44.786Z,6.19
2023-01-20T15:19:33.452Z,5.37
2023-01-20T15:22:21.865Z,5.06
2023-01-20T15:24:49.547Z,5.39
2023-01-20T15:27:38.149Z,5.24
2023-01-20T15:30:16.161Z,5.32
2023-01-20T15:32:43.828Z,5.33
2023-01-20T15:35:15.079Z,5.85
2023-01-20T15:37:44.248Z,5.71
2023-01-20T15:40:16.051Z,5.14
2023-01-20T15:42:43.791Z,5.04
2023-01-20T15:45:13.710Z,5.40
2023-01-20T15:47:41.194Z,5.52
2023-01-20T15:50:13.662Z,5.61
2023-01-20T15:52:41.300Z,5.80
2023-01-20T15:55:12.189Z,5.30
2023-01-20T15:57:39.732Z,5.80
2023-01-20T16:00:07.828Z,5.67
2023-01-20T16:02:35.340Z,5.90
2023-01-20T16:05:03.490Z,5.73
2023-01-20T16:07:30.985Z,5.46
2023-01-20T16:09:58.510Z,5.56
2023-01-20T16:12:27.839Z,5.60
2023-01-20T16:14:55.344Z,5.77
2023-01-20T16:17:23.132Z,6.03
2023-01-20T16:19:50.735Z,5.80
2023-01-20T16:22:18.244Z,5.16
2023-01-20T16:24:45.792Z,5.27
2023-01-20T16:27:15.697Z,5.12
2023-01-20T16:29:44.518Z,5.38
2023-01-20T16:32:12.096Z,5.40
2023-01-20T16:34:39.595Z,4.68
2023-01-20T16:37:07.238Z,4.91
2023-01-20T16:39:34.910Z,5.49
2023-01-20T16:42:02.406Z,4.88
2023-01-20T16:44:29.905Z,5.36
2023-01-20T16:47:00.204Z,5.41
2023-01-20T16:49:27.956Z,5.06
2023-01-20T16:51:55.445Z,5.57
2023-01-20T16:54:22.940Z,5.49
2023-01-20T16:56:50.442Z,5.52
2023-01-20T16:59:18.339Z,4.89
2023-01-20T17:01:48.024Z,5.17
2023-01-20T17:04:16.930Z,5.35
2023-01-20T17:06:44.455Z,5.53
2023-01-20T17:09:12.133Z,5.37
2023-01-20T17:11:40.256Z,5.01
2023-01-20T17:14:08.577Z,5.61
2023-01-20T17:16:37.090Z,5.53
2023-01-20T17:19:04.907Z,4.95
2023-01-20T17:21:34.514Z,4.84
2023-01-20T17:24:02.929Z,4.59
2023-01-20T17:26:30.667Z,4.85
2023-01-20T17:28:58.825Z,5.22
2023-01-20T17:31:26.411Z,4.74
2023-01-20T17:33:53.979Z,4.68
2023-01-20T17:36:22.051Z,4.50
2023-01-20T17:38:50.933Z,4.55
2023-01-20T17:41:18.485Z,5.06
2023-01-20T17:43:46.660Z,5.26
2023-01-20T17:46:15.005Z,5.14
2023-01-20T17:48:42.553Z,4.65
2023-01-20T17:51:10.534Z,4.97
2023-01-20T17:53:38.115Z,5.02
2023-01-20T17:56:12.806Z,4.85
2023-01-20T17:58:40.888Z,5.22
2023-01-20T18:01:12.004Z,4.51
2023-01-20T18:03:41.957Z,4.71
2023-01-20T18:06:10.757Z,4.11
2023-01-20T18:08:39.167Z,3.85
2023-01-20T18:11:09.382Z,4.61
2023-01-20T18:13:37.035Z,4.64
2023-01-20T18:16:05.315Z,5.09
2023-01-20T18:18:32.985Z,4.91
2023-01-20T18:21:08.241Z,4.19
2023-01-20T18:23:38.195Z,4.31
2023-01-20T18:26:08.885Z,4.31
2023-01-20T18:28:36.715Z,4.45
2023-01-20T18:31:08.469Z,3.93
2023-01-20T18:33:38.281Z,4.32
2023-01-20T18:36:05.931Z,4.21
2023-01-20T18:38:33.450Z,3.99
2023-01-20T18:41:01.442Z,3.72
2023-01-20T18:43:30.369Z,3.76
2023-01-20T18:45:57.955Z,4.17
2023-01-20T18:48:25.499Z,4.23
2023-01-20T18:50:53.529Z,4.20
2023-01-20T18:53:21.068Z,4.18
2023-01-20T18:55:48.638Z,4.04
2023-01-20T18:58:17.441Z,3.92
2023-01-20T19:00:46.269Z,3.83
2023-01-20T19:03:13.796Z,3.68
2023-01-20T19:05:41.391Z,3.66
2023-01-20T19:08:08.881Z,3.57
2023-01-20T19:10:36.362Z,3.53
2023-01-20T19:13:03.893Z,3.49
2023-01-20T19:15:33.628Z,3.47
2023-01-20T19:18:02.611Z,3.44
2023-01-20T19:20:30.247Z,3.17
2023-01-20T19:22:57.778Z,3.21
2023-01-20T19:25:29.517Z,2.75
2023-01-20T19:27:57.058Z,2.64
2023-01-20T19:30:24.550Z,2.55
2023-01-20T19:32:52.054Z,2.99
2023-01-20T19:35:21.834Z,2.80
2023-01-20T19:37:49.394Z,2.68
2023-01-20T19:40:17.468Z,2.40
2023-01-20T19:42:48.245Z,2.70
2023-01-20T19:45:16.231Z,2.80
2023-01-20T19:47:43.726Z,2.73
2023-01-20T19:50:11.771Z,2.45
2023-01-20T19:52:40.573Z,2.78
2023-01-20T19:55:08.115Z,2.37
2023-01-20T19:57:35.566Z,2.82
2023-01-20T20:00:03.597Z,2.59
2023-01-20T20:02:31.107Z,2.27
2023-01-20T20:04:58.570Z,2.20
2023-01-20T20:07:26.053Z,2.29
2023-01-20T20:09:54.942Z,1.95
2023-01-20T20:12:22.429Z,1.92
2023-01-20T20:14:49.885Z,2.57
2023-01-20T20:17:17.377Z,2.30
2023-01-20T20:19:44.830Z,2.47
2023-01-20T20:22:12.323Z,1.92
2023-01-20T20:24:39.838Z,2.15
2023-01-20T20:27:08.704Z,2.39
2023-01-20T20:29:36.279Z,2.09
2023-01-20T20:32:03.779Z,2.09
2023-01-20T20:34:31.333Z,2.50
2023-01-20T20:36:58.874Z,2.26
2023-01-20T20:39:26.466Z,2.36
2023-01-20T20:41:55.347Z,2.40
2023-01-20T20:44:24.177Z,2.34
2023-01-20T20:46:51.803Z,2.42
2023-01-20T20:49:19.456Z,1.86
2023-01-20T20:51:46.949Z,2.24
2023-01-20T20:54:16.845Z,2.26
2023-01-20T20:56:44.378Z,2.38
2023-01-20T20:59:11.928Z,2.12
2023-01-20T21:01:40.936Z,1.88
2023-01-20T21:04:08.666Z,1.91
2023-01-20T21:06:36.196Z,1.63
2023-01-20T21:09:03.706Z,2.07
2023-01-20T21:11:31.241Z,1.64
2023-01-20T21:13:59.067Z,1.95
2023-01-20T21:16:27.520Z,1.80
2023-01-20T21:18:57.137Z,1.92
2023-01-20T21:21:25.086Z,1.75
2023-01-20T21:23:53.203Z,1.58
2023-01-20T21:26:21.385Z,1.41
2023-01-20T21:28:50.055Z,2.01
2023-01-20T21:31:19.059Z,1.57
2023-01-20T21:33:46.845Z,2.10
2023-01-20T21:36:15.669Z,1.50
2023-01-20T21:38:45.427Z,1.88
2023-01-20T21:41:13.669Z,1.72
2023-01-20T21:43:59.204Z,1.93
2023-01-20T21:46:28.041Z,2.00
2023-01-20T21:49:12.999Z,1.88
2023-01-20T21:52:00.595Z,1.85
2023-01-20T21:54:28.491Z,1.59
2023-01-20T21:56:55.987Z,1.63
2023-01-20T21:59:23.451Z,1.34
2023-01-20T22:01:51.035Z,1.69
2023-01-20T22:04:18.710Z,1.98
2023-01-20T22:06:47.542Z,1.69
2023-01-20T22:09:15.097Z,1.78
2023-01-20T22:11:42.612Z,1.75
2023-01-20T22:14:10.189Z,1.81
2023-01-20T22:16:37.749Z,1.99
2023-01-20T22:19:05.429Z,1.62
2023-01-20T22:21:33.259Z,2.10
2023-01-20T22:24:02.484Z,2.23
2023-01-20T22:26:29.962Z,2.46
2023-01-20T22:28:57.502Z,2.32
2023-01-20T22:31:25.040Z,2.00
2023-01-20T22:33:52.815Z,1.95
2023-01-20T22:36:20.390Z,2.05
2023-01-20T22:38:47.940Z,1.94
2023-01-20T22:41:16.801Z,2.22
2023-01-20T22:43:44.903Z,2.14
2023-01-20T22:46:13.605Z,1.79
2023-01-20T22:48:41.171Z,1.58
2023-01-20T22:51:09.274Z,1.46
2023-01-20T22:53:36.850Z,1.62
2023-01-20T22:56:05.016Z,1.57
2023-01-20T22:58:34.085Z,1.63
2023-01-20T23:01:01.829Z,1.43
2023-01-20T23:03:29.407Z,1.30
2023-01-20T23:05:57.781Z,1.49
2023-01-20T23:08:25.461Z,1.32
2023-01-20T23:10:55.019Z,1.48
2023-01-20T23:13:22.630Z,1.03
2023-01-20T23:15:52.174Z,1.56
2023-01-20T23:18:19.862Z,1.80
2023-01-20T23:20:48.466Z,1.51
2023-01-20T23:23:16.241Z,1.45
2023-01-20T23:25:43.742Z,1.47
2023-01-20T23:28:11.251Z,1.54
2023-01-20T23:30:38.974Z,1.52
2023-01-20T23:33:07.889Z,1.04
2023-01-20T23:35:38.657Z,1.24
2023-01-20T23:38:06.703Z,1.01
2023-01-20T23:40:34.325Z,1.62
2023-01-20T23:43:02.049Z,1.52
2023-01-20T23:45:29.611Z,1.60
2023-01-20T23:47:57.119Z,1.21
2023-01-20T23:50:25.971Z,0.84
2023-01-20T23:52:53.441Z,0.98
2023-01-20T23:55:20.982Z,1.18
2023-01-20T23:57:48.599Z,1.27
